Time;durP1;ratioP1;P1;durP2;ratioP2;P2;SDS_P1;SDS_P2;PMS_P1;PMS_P2;Temp;Humidity;BMP_temperature;BMP_pressure;BME280_temperature;BME280_humidity;BME280_pressure;Samples;Min_cycle;Max_cycle;Signal;HPM_P1;HPM_P2
2021/10/18 00:02:08;;;;;;;15.53;11.73;;;12.20;99.90;;;;;;4952479;28;20218;-66
2021/10/18 00:04:34;;;;;;;14.73;12.93;;;12.20;99.90;;;;;;4952532;28;20631;-65
2021/10/18 00:07:00;;;;;;;16.30;12.43;;;12.20;99.90;;;;;;4954635;28;21247;-65
2021/10/18 00:09:28;;;;;;;15.93;12.70;;;12.30;99.90;;;;;;4957049;28;20184;-66
2021/10/18 00:12:01;;;;;;;13.50;12.20;;;12.20;99.90;;;;;;4957147;28;20267;-64
2021/10/18 00:14:26;;;;;;;13.10;11.77;;;12.20;99.90;;;;;;4954111;28;20638;-65
2021/10/18 00:16:52;;;;;;;14.93;12.03;;;12.20;99.90;;;;;;4954955;28;20746;-65
2021/10/18 00:19:17;;;;;;;12.30;11.00;;;12.20;99.90;;;;;;4961331;28;20250;-64
2021/10/18 00:21:48;;;;;;;13.70;12.10;;;12.20;99.90;;;;;;4953763;28;20245;-64
2021/10/18 00:24:14;;;;;;;14.67;11.80;;;12.20;99.90;;;;;;4959094;28;20666;-65
2021/10/18 00:26:45;;;;;;;13.50;12.00;;;12.20;99.90;;;;;;4956966;28;20741;-66
2021/10/18 00:29:10;;;;;;;14.87;10.80;;;12.20;99.90;;;;;;4955131;28;20311;-64
2021/10/18 00:31:36;;;;;;;12.90;11.10;;;12.20;99.90;;;;;;4954152;28;20746;-64
2021/10/18 00:34:02;;;;;;;14.10;12.60;;;12.20;99.90;;;;;;4956849;28;20671;-64
2021/10/18 00:36:30;;;;;;;14.23;12.50;;;12.20;99.90;;;;;;4956391;28;20642;-65
2021/10/18 00:38:56;;;;;;;11.97;10.73;;;12.20;99.90;;;;;;4956841;28;20721;-66
2021/10/18 00:41:22;;;;;;;12.60;11.30;;;12.20;99.90;;;;;;4958787;28;21096;-64
2021/10/18 00:43:50;;;;;;;12.97;11.60;;;12.20;99.90;;;;;;4958588;28;20213;-65
2021/10/18 00:46:23;;;;;;;14.57;10.90;;;12.20;99.90;;;;;;4971524;28;20697;-64
2021/10/18 00:48:53;;;;;;;12.27;10.93;;;12.20;99.90;;;;;;4959908;28;20721;-68
2021/10/18 00:51:24;;;;;;;13.00;10.80;;;12.20;99.90;;;;;;4954916;28;20949;-65
2021/10/18 00:53:55;;;;;;;13.00;11.60;;;12.20;99.90;;;;;;4958799;28;20965;-65
2021/10/18 00:56:22;;;;;;;12.27;11.17;;;12.20;99.90;;;;;;4957400;28;20661;-65
2021/10/18 00:58:52;;;;;;;13.00;11.33;;;12.20;99.90;;;;;;4957709;28;20596;-65
2021/10/18 01:01:25;;;;;;;14.90;12.20;;;12.20;99.90;;;;;;4957400;28;20663;-65
2021/10/18 01:03:59;;;;;;;12.80;11.50;;;12.20;99.90;;;;;;4957903;28;20682;-65
2021/10/18 01:06:24;;;;;;;12.80;11.20;;;12.20;99.90;;;;;;4956392;28;20716;-65
2021/10/18 01:08:53;;;;;;;13.33;11.70;;;12.20;99.90;;;;;;4957676;28;20626;-65
2021/10/18 01:11:19;;;;;;;14.40;10.80;;;12.20;99.90;;;;;;4958752;28;20942;-65
2021/10/18 01:13:48;;;;;;;15.57;12.57;;;12.20;99.90;;;;;;4958723;28;20624;-65
2021/10/18 01:16:15;;;;;;;13.07;11.73;;;12.20;99.90;;;;;;4942427;28;20222;-64
2021/10/18 01:18:41;;;;;;;13.53;11.10;;;12.20;99.90;;;;;;4957912;28;21216;-65
2021/10/18 01:21:12;;;;;;;13.73;12.10;;;12.20;99.90;;;;;;4955742;28;20661;-64
2021/10/18 01:23:47;;;;;;;14.43;11.10;;;12.10;99.90;;;;;;4961263;28;20637;-65
2021/10/18 01:26:15;;;;;;;14.70;11.60;;;12.20;99.90;;;;;;4957936;28;20730;-65
2021/10/18 01:28:43;;;;;;;15.10;11.63;;;12.20;99.90;;;;;;4958770;28;20645;-65
2021/10/18 01:31:10;;;;;;;13.70;11.20;;;12.20;99.90;;;;;;4956811;28;20662;-66
2021/10/18 01:33:38;;;;;;;12.67;11.37;;;12.20;99.90;;;;;;4955567;28;20614;-64
2021/10/18 01:36:07;;;;;;;13.27;11.97;;;12.20;99.90;;;;;;4957039;28;20673;-66
2021/10/18 01:38:35;;;;;;;14.23;12.37;;;12.10;99.90;;;;;;4956498;28;20642;-65
2021/10/18 01:41:03;;;;;;;13.00;11.60;;;12.20;99.90;;;;;;4956009;28;20781;-65
2021/10/18 01:43:29;;;;;;;17.17;12.07;;;12.20;99.90;;;;;;4952962;28;20626;-66
2021/10/18 01:45:54;;;;;;;16.13;12.40;;;12.20;99.90;;;;;;4954147;28;21210;-63
2021/10/18 01:48:23;;;;;;;12.87;11.37;;;12.20;99.90;;;;;;4957647;28;20198;-64
2021/10/18 01:50:51;;;;;;;13.67;12.17;;;12.10;99.90;;;;;;4955376;28;20299;-64
2021/10/18 01:53:17;;;;;;;16.00;12.27;;;12.20;99.90;;;;;;4955473;28;20623;-63
2021/10/18 01:55:42;;;;;;;13.50;12.20;;;12.10;99.90;;;;;;4955729;28;20860;-63
2021/10/18 01:58:11;;;;;;;16.13;12.67;;;12.10;99.90;;;;;;4959736;28;20636;-65
2021/10/18 02:00:37;;;;;;;14.00;11.40;;;12.10;99.90;;;;;;4971253;28;20326;-64
2021/10/18 02:03:05;;;;;;;14.87;12.20;;;12.10;99.90;;;;;;4958424;28;20626;-64
2021/10/18 02:05:31;;;;;;;15.67;12.97;;;12.00;99.90;;;;;;4967249;28;20662;-63
2021/10/18 02:07:56;;;;;;;13.80;12.40;;;12.00;99.90;;;;;;4956206;28;20717;-64
2021/10/18 02:10:22;;;;;;;15.03;12.50;;;12.00;99.90;;;;;;4956952;28;20235;-66
2021/10/18 02:12:48;;;;;;;14.47;12.40;;;11.90;99.90;;;;;;4959275;28;20912;-64
2021/10/18 02:15:17;;;;;;;13.77;12.23;;;11.90;99.90;;;;;;4957197;28;20210;-64
2021/10/18 02:17:44;;;;;;;13.70;11.90;;;11.90;99.90;;;;;;4959157;28;20225;-63
2021/10/18 02:20:11;;;;;;;15.37;12.37;;;11.90;99.90;;;;;;4949429;28;20749;-63
2021/10/18 02:22:39;;;;;;;13.60;12.20;;;11.90;99.90;;;;;;4954393;28;20767;-67
2021/10/18 02:25:07;;;;;;;15.23;12.23;;;11.80;99.90;;;;;;4957227;28;20657;-64
2021/10/18 02:27:32;;;;;;;15.10;12.63;;;11.80;99.90;;;;;;4956743;28;20606;-66
2021/10/18 02:29:58;;;;;;;13.70;12.10;;;11.80;99.90;;;;;;4956496;28;20676;-64
2021/10/18 02:32:26;;;;;;;16.67;12.30;;;11.80;99.90;;;;;;4954579;28;20603;-64
2021/10/18 02:34:51;;;;;;;13.93;12.47;;;11.80;99.90;;;;;;4953565;28;20246;-64
2021/10/18 02:37:19;;;;;;;15.27;12.97;;;11.70;99.90;;;;;;4958178;28;20618;-64
2021/10/18 02:39:45;;;;;;;14.67;13.07;;;11.70;99.90;;;;;;4956627;28;20624;-63
2021/10/18 02:42:10;;;;;;;16.03;12.73;;;11.70;99.90;;;;;;4956430;28;20690;-64
2021/10/18 02:44:36;;;;;;;13.63;12.23;;;11.70;99.90;;;;;;4956686;28;20195;-64
2021/10/18 02:47:02;;;;;;;15.07;12.27;;;11.70;99.90;;;;;;4970913;28;20204;-64
2021/10/18 02:49:27;;;;;;;15.83;12.30;;;11.70;99.90;;;;;;4958260;28;20188;-64
2021/10/18 02:51:55;;;;;;;14.07;12.57;;;11.70;99.90;;;;;;4955501;28;20709;-65
2021/10/18 02:54:21;;;;;;;16.87;13.50;;;11.70;99.90;;;;;;4957864;28;20592;-66
2021/10/18 02:56:46;;;;;;;14.67;13.13;;;11.70;99.90;;;;;;4956192;28;20665;-63
2021/10/18 02:59:12;;;;;;;13.57;12.10;;;11.60;99.90;;;;;;4959983;28;20191;-64
2021/10/18 03:01:38;;;;;;;18.07;13.67;;;11.70;99.90;;;;;;4956612;28;20314;-64
2021/10/18 03:04:04;;;;;;;14.50;13.10;;;11.70;99.90;;;;;;4954246;28;20247;-64
2021/10/18 03:06:29;;;;;;;15.50;12.40;;;11.70;99.90;;;;;;4955973;28;20302;-66
2021/10/18 03:08:55;;;;;;;13.87;12.37;;;11.70;99.90;;;;;;4955810;28;20554;-63
2021/10/18 03:11:22;;;;;;;15.30;12.60;;;11.60;99.90;;;;;;4958295;28;20227;-67
2021/10/18 03:13:53;;;;;;;17.43;12.90;;;11.60;99.90;;;;;;4958977;28;20242;-64
2021/10/18 03:16:18;;;;;;;14.60;12.83;;;11.70;99.90;;;;;;4957771;28;21326;-64
2021/10/18 03:18:46;;;;;;;14.87;13.00;;;11.60;99.90;;;;;;4956021;28;20626;-64
2021/10/18 03:21:19;;;;;;;14.43;12.43;;;11.60;99.90;;;;;;4954630;28;20231;-64
2021/10/18 03:23:48;;;;;;;14.60;12.13;;;11.60;99.90;;;;;;4954792;28;21072;-64
2021/10/18 03:26:15;;;;;;;18.90;14.20;;;11.60;99.90;;;;;;4954032;28;20653;-64
2021/10/18 03:28:41;;;;;;;14.57;13.03;;;11.60;99.90;;;;;;4954468;28;20651;-65
2021/10/18 03:31:07;;;;;;;16.20;12.90;;;11.60;99.90;;;;;;4956099;28;20627;-64
2021/10/18 03:33:42;;;;;;;16.50;13.30;;;11.60;99.90;;;;;;4955531;28;21151;-65
2021/10/18 03:36:09;;;;;;;16.47;12.87;;;11.60;99.90;;;;;;4954986;28;20790;-64
2021/10/18 03:38:37;;;;;;;15.30;13.00;;;11.60;99.90;;;;;;4967694;28;20635;-67
2021/10/18 03:41:03;;;;;;;15.10;13.60;;;11.60;99.90;;;;;;4973497;28;21237;-64
2021/10/18 03:43:31;;;;;;;18.80;13.10;;;11.60;99.90;;;;;;4960570;28;20672;-65
2021/10/18 03:45:59;;;;;;;16.20;12.50;;;11.60;99.90;;;;;;4971307;28;20740;-64
2021/10/18 03:48:25;;;;;;;16.37;13.57;;;11.60;99.90;;;;;;4959799;28;20650;-65
2021/10/18 03:50:50;;;;;;;14.60;12.63;;;11.60;99.90;;;;;;4959915;28;20662;-65
2021/10/18 03:53:16;;;;;;;16.10;13.63;;;11.60;99.90;;;;;;4959445;28;20195;-63
2021/10/18 03:55:44;;;;;;;16.90;12.20;;;11.60;99.90;;;;;;4959506;28;20207;-64
2021/10/18 03:58:12;;;;;;;17.47;13.30;;;11.60;99.90;;;;;;4960419;28;20226;-64
2021/10/18 04:00:37;;;;;;;14.60;12.60;;;11.60;99.90;;;;;;4959336;28;20660;-65
2021/10/18 04:03:09;;;;;;;15.37;13.67;;;11.60;99.90;;;;;;4961771;28;20611;-65
2021/10/18 04:05:34;;;;;;;14.80;13.27;;;11.60;99.90;;;;;;4956871;28;20681;-67
2021/10/18 04:08:05;;;;;;;13.13;11.77;;;11.60;99.90;;;;;;4960407;28;20622;-64
2021/10/18 04:10:39;;;;;;;14.20;12.77;;;11.60;99.90;;;;;;4957759;28;20223;-64
2021/10/18 04:13:04;;;;;;;14.27;12.90;;;11.70;99.90;;;;;;4961515;28;20613;-67
2021/10/18 04:15:30;;;;;;;13.97;11.73;;;11.70;99.90;;;;;;4957239;28;20999;-64
2021/10/18 04:17:55;;;;;;;14.13;12.63;;;11.70;99.90;;;;;;4961422;28;20198;-63
2021/10/18 04:20:26;;;;;;;15.70;12.00;;;11.70;99.90;;;;;;4956597;28;21071;-64
2021/10/18 04:22:52;;;;;;;14.70;13.20;;;11.70;99.90;;;;;;4958776;28;20609;-63
2021/10/18 04:25:17;;;;;;;15.23;12.60;;;11.70;99.90;;;;;;4955987;28;20721;-64
2021/10/18 04:27:46;;;;;;;14.70;12.43;;;11.70;99.90;;;;;;4960459;28;20222;-64
2021/10/18 04:30:17;;;;;;;14.53;13.00;;;11.70;99.90;;;;;;4957910;28;20222;-65
2021/10/18 04:32:45;;;;;;;16.50;12.60;;;11.80;99.90;;;;;;4949645;28;20617;-64
2021/10/18 04:35:11;;;;;;;14.83;12.20;;;11.80;99.90;;;;;;4957196;28;20712;-63
2021/10/18 04:37:36;;;;;;;15.00;13.40;;;11.80;99.90;;;;;;4958945;28;20993;-63
2021/10/18 04:40:05;;;;;;;15.77;13.03;;;11.80;99.90;;;;;;4958464;28;20204;-63
2021/10/18 04:42:31;;;;;;;15.70;13.80;;;11.80;99.90;;;;;;4959488;28;20190;-63
2021/10/18 04:44:59;;;;;;;15.93;14.00;;;11.80;99.90;;;;;;4958432;28;20618;-66
2021/10/18 04:47:25;;;;;;;13.17;11.80;;;11.80;99.90;;;;;;4956585;28;20231;-64
2021/10/18 04:49:50;;;;;;;15.40;13.50;;;11.80;99.90;;;;;;4955202;28;20623;-62
2021/10/18 04:52:16;;;;;;;14.30;12.70;;;11.80;99.90;;;;;;4956116;28;20192;-64
2021/10/18 04:54:49;;;;;;;14.33;12.90;;;11.80;99.90;;;;;;4948234;28;20188;-67
2021/10/18 04:57:20;;;;;;;14.77;13.17;;;11.80;99.90;;;;;;4953084;28;20226;-65
2021/10/18 04:59:48;;;;;;;14.77;13.27;;;11.80;99.90;;;;;;4956084;28;20638;-63
2021/10/18 05:02:13;;;;;;;15.97;14.10;;;11.80;99.90;;;;;;4955832;28;21257;-64
2021/10/18 05:04:42;;;;;;;15.20;12.70;;;11.80;99.90;;;;;;4960210;28;20602;-64
2021/10/18 05:07:08;;;;;;;16.10;12.67;;;11.80;99.90;;;;;;4952099;28;20258;-65
2021/10/18 05:09:35;;;;;;;14.30;12.80;;;11.80;99.90;;;;;;4934428;28;20633;-65
2021/10/18 05:12:03;;;;;;;14.87;12.60;;;11.80;99.90;;;;;;4935494;28;20706;-64
2021/10/18 05:14:31;;;;;;;16.93;13.80;;;11.90;99.90;;;;;;4939499;28;20610;-65
2021/10/18 05:16:57;;;;;;;14.93;13.17;;;11.90;99.90;;;;;;4931942;28;20650;-66
2021/10/18 05:19:25;;;;;;;15.50;13.90;;;11.80;99.90;;;;;;4943331;28;21249;-65
2021/10/18 05:21:50;;;;;;;15.63;13.93;;;11.90;99.90;;;;;;4952153;28;20241;-65
2021/10/18 05:24:16;;;;;;;19.10;14.30;;;11.90;99.90;;;;;;4943590;28;20619;-66
2021/10/18 05:26:42;;;;;;;14.97;13.47;;;11.90;99.90;;;;;;4938277;28;20208;-65
2021/10/18 05:29:08;;;;;;;15.10;13.20;;;11.90;99.90;;;;;;4951059;28;20195;-67
2021/10/18 05:31:35;;;;;;;15.60;12.67;;;11.90;99.90;;;;;;4948160;28;20227;-64
2021/10/18 05:34:00;;;;;;;15.83;14.10;;;11.90;99.90;;;;;;4961704;28;20969;-64
2021/10/18 05:36:26;;;;;;;19.80;14.43;;;11.90;99.90;;;;;;4946986;28;20662;-65
2021/10/18 05:38:57;;;;;;;16.10;13.37;;;11.90;99.90;;;;;;4951268;28;20187;-65
2021/10/18 05:41:22;;;;;;;14.53;12.80;;;11.90;99.90;;;;;;4953994;28;20815;-68
2021/10/18 05:43:48;;;;;;;15.43;12.63;;;11.90;99.90;;;;;;4947094;28;20634;-68
2021/10/18 05:46:13;;;;;;;18.47;14.37;;;11.90;99.90;;;;;;4957392;28;20211;-66
2021/10/18 05:48:41;;;;;;;18.87;14.80;;;11.90;99.90;;;;;;4962495;28;20667;-66
2021/10/18 05:51:07;;;;;;;15.53;13.80;;;11.90;99.90;;;;;;4959884;28;20274;-65
2021/10/18 05:53:33;;;;;;;16.90;14.13;;;11.90;99.90;;;;;;4962668;28;20610;-66
2021/10/18 05:55:59;;;;;;;15.63;12.77;;;11.90;99.90;;;;;;4963878;28;20207;-65
2021/10/18 05:58:29;;;;;;;15.07;12.70;;;11.90;99.90;;;;;;4961826;28;20642;-65
2021/10/18 06:00:58;;;;;;;16.27;14.47;;;12.10;99.90;;;;;;4957648;28;20329;-66
2021/10/18 06:03:23;;;;;;;15.67;14.00;;;12.00;99.90;;;;;;4962704;28;20957;-68
2021/10/18 06:05:52;;;;;;;16.27;13.93;;;11.90;99.90;;;;;;4961350;28;20701;-65
2021/10/18 06:08:19;;;;;;;17.03;14.60;;;12.00;99.90;;;;;;4962224;28;20199;-66
2021/10/18 06:10:47;;;;;;;15.33;13.77;;;11.90;99.90;;;;;;4958132;28;20708;-67
2021/10/18 06:13:13;;;;;;;16.13;14.27;;;12.00;99.90;;;;;;4959966;28;20614;-66
2021/10/18 06:15:39;;;;;;;17.97;14.33;;;12.00;99.90;;;;;;4961655;28;20698;-66
2021/10/18 06:18:13;;;;;;;16.03;14.03;;;12.00;99.90;;;;;;4960775;28;20197;-66
2021/10/18 06:20:44;;;;;;;14.90;12.20;;;12.00;99.90;;;;;;4959898;28;20254;-66
2021/10/18 06:23:12;;;;;;;14.43;12.93;;;12.00;99.90;;;;;;4959313;28;20964;-66
2021/10/18 06:25:38;;;;;;;16.97;13.00;;;12.00;99.90;;;;;;4960185;28;21240;-67
2021/10/18 06:28:12;;;;;;;15.17;13.57;;;12.00;99.90;;;;;;4957130;28;20613;-69
2021/10/18 06:30:40;;;;;;;14.10;12.70;;;12.00;99.90;;;;;;4961805;28;20325;-66
2021/10/18 06:33:06;;;;;;;16.50;14.20;;;12.00;99.90;;;;;;4957875;28;20693;-68
2021/10/18 06:35:33;;;;;;;15.30;13.67;;;12.00;99.90;;;;;;4960915;28;21193;-71
2021/10/18 06:38:02;;;;;;;15.33;13.53;;;12.10;99.90;;;;;;4958959;28;20629;-66
2021/10/18 06:40:30;;;;;;;14.97;13.20;;;12.10;99.90;;;;;;4959741;28;20650;-66
2021/10/18 06:42:55;;;;;;;15.67;14.07;;;12.10;99.90;;;;;;4957395;28;21030;-67
2021/10/18 06:45:23;;;;;;;14.80;13.20;;;12.10;99.90;;;;;;4958258;28;20710;-65
2021/10/18 06:47:51;;;;;;;15.73;13.90;;;12.10;99.90;;;;;;4960166;28;20235;-66
2021/10/18 06:50:22;;;;;;;16.00;14.30;;;12.10;99.90;;;;;;4955412;28;20697;-66
2021/10/18 06:52:50;;;;;;;17.13;15.33;;;12.10;99.90;;;;;;4957059;28;20627;-66
2021/10/18 06:55:18;;;;;;;15.47;13.93;;;12.20;99.90;;;;;;4973583;28;20682;-65
2021/10/18 06:57:46;;;;;;;19.00;14.77;;;12.20;99.90;;;;;;4965910;28;21081;-66
2021/10/18 07:00:14;;;;;;;19.30;14.80;;;12.20;99.90;;;;;;4957378;28;20713;-66
2021/10/18 07:02:40;;;;;;;18.67;14.43;;;12.20;99.90;;;;;;4957009;28;20654;-66
2021/10/18 07:05:06;;;;;;;18.80;13.10;;;12.20;99.90;;;;;;4961704;28;20715;-68
2021/10/18 07:07:32;;;;;;;18.43;14.40;;;12.30;99.90;;;;;;4957196;28;20195;-66
2021/10/18 07:10:00;;;;;;;16.17;13.63;;;12.30;99.90;;;;;;4958328;28;20606;-67
2021/10/18 07:12:32;;;;;;;16.80;15.00;;;12.30;99.90;;;;;;4956344;28;20972;-66
2021/10/18 07:14:59;;;;;;;15.60;13.90;;;12.30;99.90;;;;;;4969854;28;20630;-67
2021/10/18 07:17:26;;;;;;;16.47;14.20;;;12.30;99.90;;;;;;4958074;28;20630;-67
2021/10/18 07:19:53;;;;;;;17.90;14.70;;;12.40;99.90;;;;;;4958251;28;20645;-67
2021/10/18 07:22:24;;;;;;;14.90;13.37;;;12.40;99.90;;;;;;4960349;28;20614;-65
2021/10/18 07:24:49;;;;;;;15.27;13.67;;;12.40;99.90;;;;;;4962705;28;21207;-67
2021/10/18 07:27:17;;;;;;;14.77;13.17;;;12.50;99.90;;;;;;4970235;28;20622;-66
2021/10/18 07:29:46;;;;;;;14.13;12.40;;;12.40;99.90;;;;;;4963899;28;20194;-66
2021/10/18 07:32:11;;;;;;;14.03;12.63;;;12.40;99.90;;;;;;4962948;28;20645;-67
2021/10/18 07:34:42;;;;;;;18.03;15.67;;;12.40;99.90;;;;;;4964353;28;20714;-67
2021/10/18 07:37:08;;;;;;;14.90;13.20;;;12.60;99.90;;;;;;4960520;28;20246;-66
2021/10/18 07:39:37;;;;;;;16.83;13.63;;;12.50;99.90;;;;;;4961022;28;20629;-67
2021/10/18 07:42:06;;;;;;;15.27;12.73;;;12.50;99.90;;;;;;4972248;28;20722;-66
2021/10/18 07:44:34;;;;;;;15.17;13.60;;;12.60;99.90;;;;;;4974776;28;20666;-67
2021/10/18 07:47:00;;;;;;;14.50;13.00;;;12.60;99.90;;;;;;4957918;28;20759;-70
2021/10/18 07:49:36;;;;;;;13.80;12.30;;;12.60;99.90;;;;;;4957672;28;20709;-67
2021/10/18 07:52:04;;;;;;;15.63;13.80;;;12.60;99.90;;;;;;4955646;28;20315;-68
2021/10/18 07:54:33;;;;;;;14.00;12.70;;;12.70;99.90;;;;;;4958906;28;20617;-67
2021/10/18 07:56:58;;;;;;;14.40;12.90;;;12.70;99.90;;;;;;4953493;28;20676;-66
2021/10/18 07:59:24;;;;;;;14.70;13.23;;;12.80;99.90;;;;;;4961539;28;20725;-67
2021/10/18 08:01:49;;;;;;;14.00;12.67;;;12.80;99.90;;;;;;4959271;28;20235;-66
2021/10/18 08:04:15;;;;;;;15.23;12.47;;;12.80;99.90;;;;;;4960656;28;20189;-66
2021/10/18 08:06:40;;;;;;;13.90;12.63;;;12.80;99.90;;;;;;4957036;28;20770;-67
2021/10/18 08:09:10;;;;;;;13.67;12.20;;;12.80;99.90;;;;;;4975086;28;20222;-67
2021/10/18 08:11:36;;;;;;;13.70;12.30;;;12.90;99.90;;;;;;4959423;28;20318;-66
2021/10/18 08:14:05;;;;;;;13.73;12.23;;;12.90;99.90;;;;;;4955728;28;20742;-68
2021/10/18 08:16:33;;;;;;;14.00;12.40;;;13.00;99.90;;;;;;4960033;28;20654;-67
2021/10/18 08:18:58;;;;;;;14.90;12.70;;;13.00;99.90;;;;;;4959139;28;21205;-67
2021/10/18 08:21:24;;;;;;;16.47;13.20;;;13.00;99.90;;;;;;4955715;28;20646;-68
2021/10/18 08:23:52;;;;;;;13.83;12.43;;;13.00;99.90;;;;;;4975292;28;20206;-67
2021/10/18 08:26:18;;;;;;;12.27;11.13;;;13.10;99.90;;;;;;4957686;28;20715;-66
2021/10/18 08:28:49;;;;;;;16.07;12.50;;;13.10;99.90;;;;;;4962664;28;20618;-66
2021/10/18 08:31:15;;;;;;;13.60;12.20;;;13.20;99.90;;;;;;4974829;28;20278;-66
2021/10/18 08:33:44;;;;;;;14.07;12.57;;;13.20;99.90;;;;;;4963757;28;20681;-67
2021/10/18 08:36:15;;;;;;;16.80;13.17;;;13.20;99.90;;;;;;4964781;28;21255;-66
2021/10/18 08:38:47;;;;;;;13.90;12.60;;;13.20;99.90;;;;;;4965176;28;21005;-66
2021/10/18 08:41:18;;;;;;;13.93;12.43;;;13.20;99.90;;;;;;4961281;28;20712;-69
2021/10/18 08:46:26;;;;;;;17.10;12.07;;;13.30;99.90;;;;;;4964508;28;20635;-69
2021/10/18 08:48:53;;;;;;;15.73;12.77;;;13.30;99.90;;;;;;4962784;28;20661;-68
2021/10/18 08:51:20;;;;;;;15.80;12.97;;;13.40;99.90;;;;;;4964736;28;20626;-67
2021/10/18 08:53:45;;;;;;;15.73;12.80;;;13.40;99.90;;;;;;4962652;28;20637;-67
2021/10/18 08:56:14;;;;;;;14.00;11.77;;;13.40;99.90;;;;;;4961730;28;21023;-67
2021/10/18 08:58:42;;;;;;;12.77;11.50;;;13.40;99.90;;;;;;4961597;28;20201;-66
2021/10/18 09:01:08;;;;;;;12.40;11.10;;;13.50;99.90;;;;;;4960729;28;20650;-67
2021/10/18 09:03:34;;;;;;;13.60;11.27;;;13.50;99.90;;;;;;4962363;28;21214;-68
2021/10/18 09:06:26;;;;;;;11.70;10.50;;;13.60;99.90;;;;;;4960931;28;20238;-66
2021/10/18 09:09:01;;;;;;;13.10;11.70;;;13.60;99.90;;;;;;4963175;28;20191;-65
2021/10/18 09:11:28;;;;;;;13.87;12.40;;;13.60;99.90;;;;;;4963254;28;20637;-66
2021/10/18 09:13:59;;;;;;;12.37;11.10;;;13.70;99.90;;;;;;4962802;28;20965;-66
2021/10/18 09:16:32;;;;;;;12.70;11.40;;;13.70;99.90;;;;;;4961139;28;20658;-66
2021/10/18 09:18:57;;;;;;;14.33;11.70;;;13.70;99.90;;;;;;4963724;28;20669;-67
2021/10/18 09:21:52;;;;;;;12.80;11.00;;;13.70;99.90;;;;;;4961575;28;20742;-66
2021/10/18 09:24:33;;;;;;;12.10;10.90;;;13.70;99.90;;;;;;4958949;28;20207;-67
2021/10/18 09:27:21;;;;;;;16.00;11.20;;;13.80;99.90;;;;;;4959421;28;20736;-66
2021/10/18 09:29:52;;;;;;;12.03;10.60;;;13.80;99.90;;;;;;4963287;28;20688;-66
2021/10/18 09:32:18;;;;;;;15.07;12.00;;;13.80;99.90;;;;;;4958230;28;21249;-66
2021/10/18 09:34:44;;;;;;;14.67;10.77;;;13.80;99.90;;;;;;4961453;28;21262;-67
2021/10/18 09:37:35;;;;;;;13.17;11.63;;;13.80;99.90;;;;;;4965590;28;20706;-71
2021/10/18 09:40:01;;;;;;;11.27;10.20;;;13.80;99.90;;;;;;4962787;28;20255;-66
2021/10/18 09:42:26;;;;;;;12.53;11.33;;;13.90;99.90;;;;;;4962416;28;20602;-65
2021/10/18 10:55:54;;;;;;;11.33;9.57;;;14.90;99.90;;;;;;4961120;28;20645;-67
2021/10/18 10:58:38;;;;;;;10.60;9.50;;;15.00;99.90;;;;;;4957968;28;20711;-67
2021/10/18 11:01:05;;;;;;;8.77;7.97;;;15.00;99.90;;;;;;4960407;28;20634;-67
2021/10/18 11:03:44;;;;;;;9.50;8.60;;;15.10;99.90;;;;;;4959246;28;20634;-67
2021/10/18 11:06:11;;;;;;;11.30;8.77;;;15.10;99.90;;;;;;4960700;28;20724;-68
2021/10/18 11:08:40;;;;;;;9.90;8.37;;;15.10;99.90;;;;;;4959742;28;20629;-66
2021/10/18 11:11:26;;;;;;;9.60;8.70;;;15.20;99.90;;;;;;4960731;28;20618;-67
2021/10/18 11:13:58;;;;;;;11.27;9.00;;;15.20;99.90;;;;;;4957694;28;20646;-68
2021/10/18 11:16:30;;;;;;;15.50;9.10;;;15.30;99.90;;;;;;4955295;28;20724;-67
2021/10/18 11:19:01;;;;;;;10.47;9.43;;;15.40;99.90;;;;;;4959646;28;20649;-67
2021/10/18 11:21:33;;;;;;;11.30;9.20;;;15.40;99.90;;;;;;4959647;28;21016;-68
2021/10/18 11:24:12;;;;;;;9.63;8.63;;;15.50;99.90;;;;;;4960600;28;20622;-66
2021/10/18 11:26:41;;;;;;;9.13;8.33;;;15.60;99.90;;;;;;4958054;28;20649;-69
2021/10/18 11:29:11;;;;;;;8.47;7.77;;;15.70;99.90;;;;;;4960691;28;20695;-66
2021/10/18 11:31:42;;;;;;;9.70;8.70;;;15.70;99.90;;;;;;4973589;28;20627;-66
2021/10/18 11:34:13;;;;;;;8.40;7.63;;;15.80;99.90;;;;;;4970975;28;20631;-67
2021/10/18 11:36:41;;;;;;;10.33;9.33;;;15.90;99.90;;;;;;4959499;28;20646;-67
2021/10/18 11:39:31;;;;;;;9.97;8.00;;;15.90;99.90;;;;;;4960038;28;20713;-66
2021/10/18 11:42:13;;;;;;;8.63;7.83;;;16.00;99.90;;;;;;4957674;28;20653;-68
2021/10/18 11:44:50;;;;;;;10.40;8.60;;;16.00;99.90;;;;;;4958708;28;20625;-66
2021/10/18 11:47:32;;;;;;;8.17;7.37;;;16.00;99.90;;;;;;4958455;28;20619;-67
2021/10/18 11:50:16;;;;;;;8.60;7.87;;;16.00;99.90;;;;;;4958926;28;20606;-68
2021/10/18 11:53:10;;;;;;;9.20;8.30;;;16.00;99.90;;;;;;4959228;28;20630;-68
2021/10/18 11:55:41;;;;;;;8.63;7.73;;;16.00;99.90;;;;;;4958696;28;20645;-66
2021/10/18 11:58:07;;;;;;;10.33;8.90;;;16.00;99.90;;;;;;4959939;28;20630;-67
2021/10/18 12:00:43;;;;;;;9.10;8.20;;;15.90;99.90;;;;;;4959470;28;20635;-67
2021/10/18 12:03:14;;;;;;;9.20;8.40;;;15.90;99.90;;;;;;4962486;28;20624;-67
2021/10/18 12:05:39;;;;;;;9.20;8.30;;;16.00;99.90;;;;;;4964516;28;21003;-66
2021/10/18 12:08:06;;;;;;;11.07;9.97;;;15.90;99.90;;;;;;4979261;28;20607;-67
2021/10/18 12:10:37;;;;;;;10.40;9.07;;;15.90;99.90;;;;;;4964319;28;20250;-66
2021/10/18 12:13:19;;;;;;;9.40;8.60;;;15.90;99.90;;;;;;4961981;28;20602;-72
2021/10/18 12:15:48;;;;;;;9.87;8.97;;;15.80;99.90;;;;;;4964755;28;20701;-70
2021/10/18 12:18:32;;;;;;;11.03;9.23;;;15.80;99.90;;;;;;4979262;28;20606;-66
2021/10/18 12:21:11;;;;;;;11.43;9.37;;;15.80;99.90;;;;;;4962060;28;20673;-66
2021/10/18 12:23:46;;;;;;;8.97;8.17;;;15.70;99.90;;;;;;4963601;28;20586;-68
2021/10/18 12:26:14;;;;;;;9.73;8.83;;;15.70;99.90;;;;;;4963987;28;20635;-68
2021/10/18 12:28:55;;;;;;;10.63;9.53;;;15.70;99.90;;;;;;4960536;28;21230;-66
2021/10/18 12:31:39;;;;;;;10.30;9.30;;;15.70;99.90;;;;;;4962547;28;20674;-66
2021/10/18 12:34:13;;;;;;;10.17;9.13;;;15.70;99.90;;;;;;4974008;28;20598;-67
2021/10/18 12:37:05;;;;;;;9.90;8.60;;;15.70;99.90;;;;;;4960817;28;20646;-66
2021/10/18 12:39:49;;;;;;;10.90;9.60;;;15.70;99.90;;;;;;4963602;28;20615;-68
2021/10/18 12:42:26;;;;;;;10.20;9.20;;;15.60;99.90;;;;;;4962907;28;20661;-67
2021/10/18 12:45:07;;;;;;;10.03;8.87;;;15.70;99.90;;;;;;4961818;28;20594;-66
2021/10/18 12:47:36;;;;;;;11.20;9.87;;;15.70;99.90;;;;;;4963620;28;20566;-66
2021/10/18 12:50:11;;;;;;;10.90;9.13;;;15.70;99.90;;;;;;4961373;28;20658;-66
2021/10/18 12:52:42;;;;;;;11.80;10.53;;;15.70;99.90;;;;;;4977540;28;21034;-65
2021/10/18 12:55:21;;;;;;;11.13;9.60;;;15.70;99.90;;;;;;4958016;28;20657;-67
2021/10/18 12:57:55;;;;;;;11.10;9.53;;;15.70;99.90;;;;;;4968713;28;20625;-66
2021/10/18 13:00:32;;;;;;;10.37;9.47;;;15.70;99.90;;;;;;4964887;28;21233;-66
2021/10/18 13:03:07;;;;;;;10.90;9.80;;;15.70;99.90;;;;;;4961715;28;20704;-67
2021/10/18 13:05:42;;;;;;;13.43;10.97;;;15.70;99.90;;;;;;4978497;28;20633;-67
2021/10/18 13:08:09;;;;;;;11.30;9.90;;;15.80;99.90;;;;;;4960646;28;20618;-69
2021/10/18 13:10:47;;;;;;;9.47;8.57;;;15.90;99.90;;;;;;4944210;28;20762;-71
2021/10/18 13:13:17;;;;;;;13.90;9.97;;;15.90;99.90;;;;;;4949830;28;20629;-66
2021/10/18 13:15:44;;;;;;;9.83;8.77;;;15.80;99.90;;;;;;4953680;28;21228;-67
2021/10/18 13:18:15;;;;;;;10.00;8.90;;;15.90;99.90;;;;;;4958319;28;20642;-66
2021/10/18 13:20:43;;;;;;;9.80;8.60;;;15.90;99.90;;;;;;4960671;28;21036;-67
2021/10/18 13:23:09;;;;;;;10.77;9.20;;;16.00;99.90;;;;;;4958362;28;20624;-71
2021/10/18 13:25:41;;;;;;;9.60;8.70;;;16.00;99.90;;;;;;4961736;28;20700;-71
2021/10/18 13:28:08;;;;;;;10.13;9.17;;;16.10;99.90;;;;;;4961339;28;20630;-66
2021/10/18 13:30:38;;;;;;;10.73;8.03;;;16.20;99.90;;;;;;4960443;28;20639;-66
2021/10/18 13:33:04;;;;;;;10.23;9.23;;;16.20;99.90;;;;;;4958625;28;21215;-67
2021/10/18 13:35:31;;;;;;;9.90;9.00;;;16.30;99.90;;;;;;4968747;28;20780;-68
2021/10/18 13:37:57;;;;;;;8.60;7.80;;;16.40;99.90;;;;;;4958781;28;20614;-67
2021/10/18 13:40:27;;;;;;;12.60;9.37;;;16.50;99.90;;;;;;4962314;28;20673;-67
2021/10/18 13:42:55;;;;;;;9.33;8.33;;;16.60;99.90;;;;;;4968747;28;20624;-68
2021/10/18 13:45:22;;;;;;;10.70;9.67;;;16.70;99.90;;;;;;4954889;28;20692;-66
2021/10/18 13:47:49;;;;;;;9.10;8.17;;;16.70;99.90;;;;;;4952389;28;21023;-66
2021/10/18 13:50:24;;;;;;;9.30;8.30;;;16.80;99.90;;;;;;4951242;28;20642;-67
2021/10/18 13:52:54;;;;;;;9.53;8.47;;;16.80;99.90;;;;;;4947823;28;20617;-67
2021/10/18 13:55:21;;;;;;;12.10;8.87;;;16.80;99.90;;;;;;4954249;28;20677;-68